Terminal Aerodrome Forecast
Issued by NWS Paducah, KY

Home | Current Version | Previous Version | Text Only | Print | Product List | Glossary Off
Versions: 1 2 3 4 5 6 7 8 9 10 11 12 13 14 15 16 17 18 19

000
FTUS43 KPAH 251120
TAFEVV
TAF
KEVV 251120Z 2512/2612 18009KT P6SM -SHRA SCT015 BKN035
      TEMPO 2512/2515 5SM SHRA BR BKN015
     FM251600 19012KT P6SM VCSH SCT015 BKN040
     FM252200 17009KT P6SM SCT008 BKN025
     FM260900 18005KT 6SM -SHRA BR BKN008=

USA.gov is the U.S. government's official web portal to all federal, state and local government web resources and services.